Time;durP1;ratioP1;P1;durP2;ratioP2;P2;SDS_P1;SDS_P2;PMS_P1;PMS_P2;Temp;Humidity;BMP_temperature;BMP_pressure;BME280_temperature;BME280_humidity;BME280_pressure;Samples;Min_cycle;Max_cycle;Signal;HPM_P1;HPM_P2
2022/01/17 00:00:49;;;;;;;14.38;2.40;;;6.00;99.90;;;;;;5061916;28;20037;-65
2022/01/17 00:03:15;;;;;;;15.52;2.47;;;6.00;99.90;;;;;;5061611;28;20459;-65
2022/01/17 00:05:41;;;;;;;11.57;1.60;;;6.00;99.90;;;;;;5062602;28;20497;-65
2022/01/17 00:08:07;;;;;;;12.45;2.60;;;5.90;99.90;;;;;;5061167;28;20119;-65
2022/01/17 00:10:33;;;;;;;18.38;2.40;;;5.90;99.90;;;;;;5064338;28;20115;-65
2022/01/17 00:13:00;;;;;;;16.75;2.25;;;5.80;99.90;;;;;;5060396;28;20068;-65
2022/01/17 00:15:41;;;;;;;13.90;1.98;;;5.80;99.90;;;;;;5062727;28;20885;-65
2022/01/17 00:19:05;;;;;;;12.00;1.75;;;5.70;99.90;;;;;;5064301;28;20044;-65
2022/01/17 00:20:56;;;;;;;15.77;3.10;;;5.70;99.90;;;;;;5063055;28;20611;-65
2022/01/17 00:23:22;;;;;;;15.65;2.08;;;5.70;99.90;;;;;;5061847;28;20037;-66
2022/01/17 00:25:48;;;;;;;11.82;2.05;;;5.70;99.90;;;;;;5077419;28;20437;-66
2022/01/17 00:28:13;;;;;;;11.10;1.95;;;5.70;99.90;;;;;;5061586;28;20476;-66
2022/01/17 00:30:39;;;;;;;14.40;1.63;;;5.70;99.90;;;;;;5061595;28;20397;-66
2022/01/17 00:33:05;;;;;;;14.57;2.00;;;5.60;99.90;;;;;;5062880;28;20036;-66
2022/01/17 00:35:30;;;;;;;16.55;2.72;;;5.60;99.90;;;;;;5065802;28;20067;-66
2022/01/17 00:37:56;;;;;;;14.85;2.13;;;5.60;99.90;;;;;;5062448;28;20548;-66
2022/01/17 00:40:22;;;;;;;14.38;2.08;;;5.60;99.90;;;;;;5062723;28;20393;-66
2022/01/17 00:42:48;;;;;;;14.45;1.85;;;5.50;99.90;;;;;;5066713;28;20094;-66
2022/01/17 00:45:15;;;;;;;13.55;2.15;;;5.50;99.90;;;;;;5064028;28;20446;-66
2022/01/17 00:47:41;;;;;;;20.90;2.65;;;5.40;99.90;;;;;;5062139;28;20049;-66
2022/01/17 00:50:08;;;;;;;12.55;2.03;;;5.30;99.90;;;;;;5069627;28;20117;-66
2022/01/17 00:52:34;;;;;;;20.52;2.65;;;5.30;99.90;;;;;;5063244;28;20047;-66
2022/01/17 00:55:00;;;;;;;17.75;2.80;;;5.20;99.90;;;;;;5063438;28;20488;-66
2022/01/17 00:57:25;;;;;;;16.27;3.03;;;5.20;99.90;;;;;;5069435;28;20040;-66
2022/01/17 00:59:51;;;;;;;16.25;2.17;;;5.20;99.90;;;;;;5064950;28;20040;-66
2022/01/17 01:02:17;;;;;;;16.13;2.15;;;5.20;99.90;;;;;;5065404;28;20052;-66
2022/01/17 01:04:43;;;;;;;11.07;1.80;;;5.20;99.90;;;;;;5062116;28;20097;-66
2022/01/17 01:07:08;;;;;;;15.23;2.30;;;5.20;99.90;;;;;;5066200;28;20052;-66
2022/01/17 01:09:43;;;;;;;9.07;2.15;;;5.30;99.90;;;;;;5069234;28;20043;-66
2022/01/17 01:12:08;;;;;;;13.07;2.20;;;5.30;99.90;;;;;;5063243;28;20051;-66
2022/01/17 01:14:34;;;;;;;20.85;2.70;;;5.30;99.90;;;;;;5066212;28;20273;-66
2022/01/17 01:17:07;;;;;;;14.30;2.17;;;5.30;99.90;;;;;;5062498;28;20090;-66
2022/01/17 01:19:40;;;;;;;15.20;2.45;;;5.30;99.90;;;;;;5062930;28;20033;-66
2022/01/17 01:30:10;;;;;;;9.52;1.52;;;5.20;99.90;;;;;;5063490;28;20040;-66
2022/01/17 01:32:44;;;;;;;16.20;2.38;;;5.10;99.90;;;;;;5078388;28;20718;-66
2022/01/17 01:35:13;;;;;;;11.07;2.30;;;5.10;99.90;;;;;;5063716;28;20146;-66
2022/01/17 01:37:39;;;;;;;17.55;2.15;;;5.00;99.90;;;;;;5063612;28;20063;-66
2022/01/17 01:40:05;;;;;;;17.50;1.98;;;5.00;99.90;;;;;;5066624;28;20037;-66
2022/01/17 01:42:33;;;;;;;20.23;2.83;;;4.90;99.90;;;;;;5063149;28;20512;-66
2022/01/17 01:45:01;;;;;;;18.98;2.13;;;4.80;99.90;;;;;;5064668;28;20044;-66
2022/01/17 01:47:27;;;;;;;19.30;2.38;;;4.80;99.90;;;;;;5062551;28;20052;-66
2022/01/17 01:49:53;;;;;;;16.10;2.42;;;4.80;99.90;;;;;;5061478;28;20063;-66
2022/01/17 01:52:19;;;;;;;18.50;2.45;;;4.80;99.90;;;;;;5062164;28;20044;-66
2022/01/17 01:54:45;;;;;;;20.92;2.67;;;4.80;99.90;;;;;;5069050;28;20094;-66
2022/01/17 01:57:11;;;;;;;22.52;2.22;;;4.70;99.90;;;;;;5062558;28;20040;-66
2022/01/17 01:59:37;;;;;;;14.80;2.35;;;4.80;99.90;;;;;;5063584;28;20037;-66
2022/01/17 02:02:05;;;;;;;19.58;2.78;;;4.80;99.90;;;;;;5065924;28;20045;-66
2022/01/17 02:04:31;;;;;;;17.42;2.90;;;4.80;99.90;;;;;;5061256;28;20033;-67
2022/01/17 02:06:57;;;;;;;15.50;2.15;;;4.80;99.90;;;;;;5059754;28;20044;-67
2022/01/17 02:09:25;;;;;;;17.08;2.38;;;4.80;99.90;;;;;;5064520;28;20036;-67
2022/01/17 02:11:52;;;;;;;17.73;2.90;;;4.80;99.90;;;;;;5061276;28;20151;-67
2022/01/17 02:14:18;;;;;;;15.88;2.22;;;4.80;99.90;;;;;;5057998;28;20141;-67
2022/01/17 02:16:46;;;;;;;17.38;2.63;;;5.00;99.90;;;;;;5064854;28;20468;-67
2022/01/17 02:19:13;;;;;;;15.23;2.58;;;4.80;99.90;;;;;;5064490;28;21248;-67
2022/01/17 02:21:48;;;;;;;20.08;2.58;;;4.80;99.90;;;;;;5064452;28;20055;-67
2022/01/17 02:24:21;;;;;;;15.82;1.88;;;4.80;99.90;;;;;;5067883;28;20480;-66
2022/01/17 02:26:48;;;;;;;17.95;2.15;;;4.80;99.90;;;;;;5061435;28;20189;-66
2022/01/17 02:29:15;;;;;;;15.27;1.80;;;4.70;99.90;;;;;;5066001;28;20511;-66
2022/01/17 02:31:41;;;;;;;14.60;2.53;;;4.70;99.90;;;;;;5063106;28;20129;-66
2022/01/17 02:34:07;;;;;;;12.95;1.60;;;4.70;99.90;;;;;;5065099;28;20048;-66
2022/01/17 02:36:33;;;;;;;17.15;2.72;;;4.70;99.90;;;;;;5044510;28;20052;-66
2022/01/17 02:38:59;;;;;;;12.27;2.03;;;4.70;99.90;;;;;;5061238;28;20047;-67
2022/01/17 02:41:32;;;;;;;19.27;2.38;;;4.60;99.90;;;;;;5056224;28;20620;-67
2022/01/17 02:44:00;;;;;;;19.63;3.35;;;4.70;99.90;;;;;;5055979;28;20189;-66
2022/01/17 02:46:27;;;;;;;13.73;2.45;;;4.50;99.90;;;;;;5060551;28;20033;-66
2022/01/17 02:48:57;;;;;;;17.67;2.13;;;4.50;99.90;;;;;;5065685;28;20062;-66
2022/01/17 02:51:23;;;;;;;17.85;2.25;;;4.50;99.90;;;;;;5059253;28;20067;-66
2022/01/17 02:53:50;;;;;;;13.65;1.88;;;4.50;99.90;;;;;;5063677;28;20064;-66
2022/01/17 02:56:16;;;;;;;15.55;2.92;;;4.50;99.90;;;;;;5064205;28;20047;-66
2022/01/17 02:58:42;;;;;;;14.48;2.13;;;4.50;99.90;;;;;;5061838;28;20044;-66
2022/01/17 03:01:17;;;;;;;24.13;3.80;;;4.40;99.90;;;;;;5061434;28;20112;-67
2022/01/17 03:03:43;;;;;;;;;;;4.40;99.90;;;;;;5064687;28;20036;-66
2022/01/17 03:06:11;;;;;;;11.40;2.03;;;4.40;99.90;;;;;;5061229;28;19920;-66
2022/01/17 03:08:38;;;;;;;16.45;2.45;;;4.30;99.90;;;;;;5060270;28;20062;-66
2022/01/17 03:11:05;;;;;;;15.48;2.45;;;4.30;99.90;;;;;;5063944;28;20047;-67
2022/01/17 03:13:37;;;;;;;19.90;2.25;;;4.20;99.90;;;;;;5059341;28;20451;-66
2022/01/17 03:16:17;;;;;;;14.35;2.35;;;4.20;99.90;;;;;;5063000;28;20063;-66
2022/01/17 03:18:50;;;;;;;11.52;1.90;;;4.20;99.90;;;;;;5062798;28;20041;-69
2022/01/17 03:21:17;;;;;;;18.42;2.28;;;4.10;99.90;;;;;;5063648;28;20048;-66
2022/01/17 03:23:44;;;;;;;15.98;2.58;;;4.10;99.90;;;;;;5059792;28;20037;-66
2022/01/17 03:26:10;;;;;;;18.95;2.33;;;4.10;99.90;;;;;;5062294;28;20029;-67
2022/01/17 03:28:37;;;;;;;21.77;3.15;;;4.10;99.90;;;;;;5062838;28;20047;-66
2022/01/17 03:31:04;;;;;;;14.10;2.20;;;4.10;99.90;;;;;;5063648;28;20097;-66
2022/01/17 03:33:30;;;;;;;11.30;1.35;;;4.20;99.90;;;;;;5059244;28;20041;-66
2022/01/17 03:35:56;;;;;;;16.05;2.10;;;4.20;99.90;;;;;;5060857;28;20088;-67
2022/01/17 03:38:26;;;;;;;12.30;1.75;;;4.20;99.90;;;;;;5058690;28;20123;-67
2022/01/17 03:40:52;;;;;;;19.95;2.65;;;4.30;99.90;;;;;;5061399;28;20068;-67
2022/01/17 03:43:20;;;;;;;16.10;1.95;;;4.30;99.90;;;;;;5062939;28;21299;-67
2022/01/17 03:45:46;;;;;;;18.20;2.03;;;4.40;99.90;;;;;;5059162;28;20123;-67
2022/01/17 03:48:12;;;;;;;17.08;1.98;;;4.40;99.90;;;;;;5062001;28;20044;-67
2022/01/17 03:50:38;;;;;;;13.52;2.17;;;4.40;99.90;;;;;;5063108;28;20048;-67
2022/01/17 03:53:04;;;;;;;16.08;2.22;;;4.50;99.90;;;;;;5062980;28;20040;-67
2022/01/17 03:55:33;;;;;;;15.90;1.60;;;4.50;99.90;;;;;;5064568;28;20090;-67
2022/01/17 03:57:59;;;;;;;17.98;2.38;;;4.60;99.90;;;;;;5067918;28;20124;-67
2022/01/17 04:00:32;;;;;;;15.75;1.98;;;4.60;99.90;;;;;;5065272;28;20552;-67
2022/01/17 04:02:58;;;;;;;17.98;1.83;;;4.70;99.90;;;;;;5062546;28;20047;-67
2022/01/17 04:05:23;;;;;;;15.70;2.22;;;4.70;99.90;;;;;;5064623;28;20051;-67
2022/01/17 04:07:50;;;;;;;19.48;2.72;;;4.70;99.90;;;;;;5066686;28;20569;-67
2022/01/17 04:10:16;;;;;;;13.20;2.22;;;4.70;99.90;;;;;;5066225;28;20055;-67
2022/01/17 04:12:43;;;;;;;12.82;1.63;;;4.70;99.90;;;;;;5065555;28;20049;-65
2022/01/17 04:15:09;;;;;;;11.75;1.80;;;4.70;99.90;;;;;;5066254;28;20431;-64
2022/01/17 04:17:36;;;;;;;9.68;1.92;;;4.70;99.90;;;;;;5061025;28;20310;-64
2022/01/17 04:20:06;;;;;;;13.23;2.17;;;4.70;99.90;;;;;;5057086;28;20059;-64
2022/01/17 04:22:39;;;;;;;19.42;2.38;;;4.60;99.90;;;;;;5065911;28;20110;-64
2022/01/17 04:25:07;;;;;;;20.10;2.92;;;4.60;99.90;;;;;;5066854;28;20047;-64
2022/01/17 04:27:33;;;;;;;18.35;2.92;;;4.60;99.90;;;;;;5063785;28;20040;-64
2022/01/17 04:29:59;;;;;;;15.57;2.72;;;4.60;99.90;;;;;;5065698;28;20048;-67
2022/01/17 04:32:25;;;;;;;12.07;2.13;;;4.60;99.90;;;;;;5061388;28;20036;-67
2022/01/17 04:34:51;;;;;;;13.85;2.15;;;4.50;99.90;;;;;;5065516;28;20047;-67
2022/01/17 04:37:16;;;;;;;14.77;2.65;;;4.50;99.90;;;;;;5066748;28;20040;-67
2022/01/17 04:39:42;;;;;;;13.38;1.73;;;4.50;99.90;;;;;;5066633;28;20224;-67
2022/01/17 04:42:13;;;;;;;15.85;2.15;;;4.40;99.90;;;;;;5063310;28;20495;-67
2022/01/17 04:47:29;;;;;;;14.38;2.50;;;4.40;99.90;;;;;;5066516;28;20093;-67
2022/01/17 04:49:55;;;;;;;12.77;1.88;;;4.50;99.90;;;;;;5064494;28;20116;-67
2022/01/17 04:52:21;;;;;;;15.20;2.22;;;4.50;99.90;;;;;;5058391;28;20498;-66
2022/01/17 04:54:52;;;;;;;15.43;1.75;;;4.50;99.90;;;;;;5063765;28;20048;-66
2022/01/17 04:57:20;;;;;;;12.93;1.25;;;4.60;99.90;;;;;;5061599;28;20075;-66
2022/01/17 04:59:47;;;;;;;16.98;2.10;;;4.60;99.90;;;;;;5063269;28;20036;-66
2022/01/17 05:02:13;;;;;;;14.77;1.95;;;4.60;99.90;;;;;;5064590;28;20033;-66
2022/01/17 05:04:39;;;;;;;13.10;1.90;;;4.70;99.90;;;;;;5061845;28;20047;-66
2022/01/17 05:07:05;;;;;;;15.70;1.92;;;4.70;99.90;;;;;;5067306;28;20048;-66
2022/01/17 05:09:31;;;;;;;16.83;2.20;;;4.80;99.90;;;;;;5064730;28;20036;-66
2022/01/17 05:11:57;;;;;;;16.17;1.90;;;4.80;99.90;;;;;;5064385;28;20103;-66
2022/01/17 05:14:25;;;;;;;12.38;2.08;;;4.90;99.90;;;;;;5065307;28;20053;-66
2022/01/17 05:16:58;;;;;;;16.40;1.98;;;5.00;99.90;;;;;;5061651;28;20045;-66
2022/01/17 05:22:07;;;;;;;13.18;1.83;;;5.20;99.90;;;;;;5062254;28;20059;-66
2022/01/17 05:24:33;;;;;;;13.68;2.10;;;5.30;99.90;;;;;;5068401;28;20029;-66
2022/01/17 05:26:59;;;;;;;14.90;2.47;;;5.30;99.90;;;;;;5062849;28;20041;-66
2022/01/17 05:29:24;;;;;;;19.67;2.85;;;5.40;99.90;;;;;;5061604;28;20048;-66
2022/01/17 05:31:50;;;;;;;14.25;2.72;;;5.40;99.90;;;;;;5067013;28;20568;-66
2022/01/17 05:34:16;;;;;;;15.77;2.53;;;5.50;99.90;;;;;;5064915;28;20451;-66
2022/01/17 05:36:41;;;;;;;18.73;3.00;;;5.40;99.90;;;;;;5063908;28;20044;-66
2022/01/17 05:39:07;;;;;;;16.35;2.15;;;5.50;99.90;;;;;;5063625;28;20127;-66
2022/01/17 05:41:33;;;;;;;16.90;2.92;;;5.50;99.90;;;;;;5063993;28;20040;-66
2022/01/17 05:43:59;;;;;;;12.40;2.42;;;5.60;99.90;;;;;;5060093;28;20093;-66
2022/01/17 05:46:24;;;;;;;17.20;2.90;;;5.60;99.90;;;;;;5066802;28;20111;-66
2022/01/17 05:48:50;;;;;;;13.57;3.17;;;5.60;99.90;;;;;;5064550;28;20044;-66
2022/01/17 05:51:16;;;;;;;12.73;2.97;;;5.70;99.90;;;;;;5063632;28;20049;-66
2022/01/17 05:53:41;;;;;;;15.27;2.42;;;5.70;99.90;;;;;;5062488;28;20049;-67
2022/01/17 05:56:07;;;;;;;15.52;2.83;;;5.70;99.90;;;;;;5064376;28;20135;-67
2022/01/17 05:58:33;;;;;;;19.17;3.17;;;5.70;99.90;;;;;;5063805;28;20227;-67
2022/01/17 06:00:59;;;;;;;14.32;2.55;;;5.70;99.90;;;;;;5068078;28;20040;-67
2022/01/17 06:03:25;;;;;;;18.17;2.50;;;5.70;99.90;;;;;;5061822;28;20032;-67
2022/01/17 06:05:52;;;;;;;15.40;2.75;;;5.70;99.90;;;;;;5065359;28;20036;-67
2022/01/17 06:08:17;;;;;;;15.30;2.90;;;5.70;99.90;;;;;;5067305;28;20102;-67
2022/01/17 06:10:43;;;;;;;16.90;2.85;;;5.70;99.90;;;;;;5064217;28;20040;-66
2022/01/17 06:13:09;;;;;;;19.55;3.58;;;5.70;99.90;;;;;;5063262;28;20029;-67
2022/01/17 06:15:35;;;;;;;22.13;3.35;;;5.80;99.90;;;;;;5067525;28;20075;-67
2022/01/17 06:18:01;;;;;;;20.58;3.63;;;5.80;99.90;;;;;;5064222;28;20036;-67
2022/01/17 06:20:27;;;;;;;20.60;3.53;;;5.80;99.90;;;;;;5065719;28;20156;-67
2022/01/17 06:22:53;;;;;;;14.95;3.60;;;5.90;99.90;;;;;;5062908;28;20123;-67
2022/01/17 06:25:18;;;;;;;22.42;3.70;;;5.80;99.90;;;;;;5056635;28;20147;-67
2022/01/17 06:27:44;;;;;;;19.35;4.07;;;5.80;99.90;;;;;;5061676;28;20366;-67
2022/01/17 06:30:11;;;;;;;19.33;4.57;;;5.80;99.90;;;;;;5063222;28;20051;-67
2022/01/17 06:32:37;;;;;;;22.85;4.82;;;5.90;99.90;;;;;;5058870;28;20068;-67
2022/01/17 06:35:03;;;;;;;17.30;3.65;;;5.90;99.90;;;;;;5058552;28;20091;-67
2022/01/17 06:37:29;;;;;;;19.10;4.45;;;5.90;99.90;;;;;;5060213;28;20048;-67
2022/01/17 06:39:55;;;;;;;17.48;3.97;;;5.90;99.90;;;;;;5063410;28;21240;-67
2022/01/17 06:42:22;;;;;;;22.25;4.43;;;5.90;99.90;;;;;;5062149;28;20603;-67
2022/01/17 06:44:48;;;;;;;24.02;4.78;;;5.90;99.90;;;;;;5062155;28;20036;-67
2022/01/17 06:47:14;;;;;;;27.40;4.38;;;6.00;99.90;;;;;;5058013;28;20048;-67
2022/01/17 06:49:40;;;;;;;19.50;4.55;;;6.00;99.90;;;;;;5055881;28;20416;-65
2022/01/17 06:52:06;;;;;;;28.13;5.13;;;6.00;99.90;;;;;;5059928;28;20052;-65
2022/01/17 06:54:32;;;;;;;23.40;5.00;;;6.00;99.90;;;;;;5058052;28;20435;-65
2022/01/17 06:56:58;;;;;;;20.25;4.97;;;6.00;99.90;;;;;;5055922;28;20053;-65
2022/01/17 06:59:23;;;;;;;18.88;5.10;;;5.90;99.90;;;;;;5062893;28;20525;-66
2022/01/17 07:01:49;;;;;;;16.88;5.40;;;6.00;99.90;;;;;;5059746;28;20044;-66
2022/01/17 07:04:15;;;;;;;28.42;5.07;;;6.00;99.90;;;;;;5064735;28;20426;-66
2022/01/17 07:06:40;;;;;;;20.95;5.10;;;6.00;99.90;;;;;;5059333;28;20063;-66
2022/01/17 07:09:14;;;;;;;24.00;5.22;;;6.00;99.90;;;;;;5053784;28;20111;-66
2022/01/17 07:11:40;;;;;;;24.38;5.18;;;6.00;99.90;;;;;;5058887;28;20098;-66
2022/01/17 07:14:08;;;;;;;26.23;4.88;;;6.00;99.90;;;;;;5063538;28;20051;-65
2022/01/17 07:16:36;;;;;;;22.30;4.68;;;6.10;99.90;;;;;;5060740;28;20035;-66
2022/01/17 07:19:03;;;;;;;27.00;5.82;;;6.10;99.90;;;;;;5058403;28;20487;-66
2022/01/17 07:21:28;;;;;;;21.35;5.10;;;6.10;99.90;;;;;;5058677;28;20505;-66
2022/01/17 07:23:54;;;;;;;20.52;5.38;;;6.10;99.90;;;;;;5051722;28;20052;-66
2022/01/17 07:26:20;;;;;;;21.35;5.13;;;6.10;99.90;;;;;;5059218;28;20158;-66
2022/01/17 07:28:46;;;;;;;25.65;6.03;;;6.10;99.90;;;;;;5055669;28;20175;-66
2022/01/17 07:31:12;;;;;;;26.80;5.70;;;6.20;99.90;;;;;;5051657;28;20523;-66
2022/01/17 07:33:38;;;;;;;22.15;5.28;;;6.10;99.90;;;;;;5052028;28;20053;-66
2022/01/17 07:36:07;;;;;;;20.80;4.93;;;6.20;99.90;;;;;;5057659;28;20029;-66
2022/01/17 07:38:34;;;;;;;26.83;4.80;;;6.10;99.90;;;;;;5054300;28;20048;-65
2022/01/17 07:41:00;;;;;;;24.95;5.70;;;6.20;99.90;;;;;;5052180;28;20489;-65
2022/01/17 07:43:25;;;;;;;24.55;4.45;;;6.20;99.90;;;;;;5060360;28;20040;-65
2022/01/17 07:46:19;;;;;;;26.02;5.25;;;6.20;99.90;;;;;;5054679;28;20081;-66
2022/01/17 07:51:11;;;;;;;23.42;4.60;;;6.20;99.90;;;;;;5053158;28;20404;-66
2022/01/17 07:53:38;;;;;;;21.92;4.57;;;6.20;99.90;;;;;;5057613;28;20392;-66
2022/01/17 07:56:04;;;;;;;22.13;4.45;;;6.20;99.90;;;;;;5052572;28;20048;-66
2022/01/17 07:58:30;;;;;;;24.60;5.00;;;6.20;99.90;;;;;;5058291;28;20370;-66
2022/01/17 08:00:56;;;;;;;28.75;4.95;;;6.20;99.90;;;;;;5062656;28;20357;-66
2022/01/17 08:03:22;;;;;;;28.02;4.88;;;6.30;99.90;;;;;;5060891;28;20028;-66
2022/01/17 08:05:47;;;;;;;24.20;5.32;;;6.30;99.90;;;;;;5048640;28;20076;-66
2022/01/17 08:08:13;;;;;;;16.70;4.43;;;6.30;99.90;;;;;;5057526;28;20033;-66
2022/01/17 08:10:39;;;;;;;27.08;5.82;;;6.30;99.90;;;;;;5059394;28;20119;-66
2022/01/17 08:13:05;;;;;;;24.70;4.85;;;6.30;99.90;;;;;;5055742;28;20554;-66
2022/01/17 08:15:31;;;;;;;25.33;5.03;;;6.40;99.90;;;;;;5055152;28;20562;-66
2022/01/17 08:17:57;;;;;;;25.77;4.95;;;6.40;99.90;;;;;;5060328;28;20044;-66
2022/01/17 08:20:23;;;;;;;31.35;5.30;;;6.40;99.90;;;;;;5062750;28;20082;-66
2022/01/17 08:22:48;;;;;;;29.40;4.97;;;6.40;99.90;;;;;;5052224;28;20032;-66
2022/01/17 08:25:16;;;;;;;31.55;4.68;;;6.40;99.90;;;;;;5057415;28;20458;-66
2022/01/17 08:27:42;;;;;;;29.15;5.20;;;6.40;99.90;;;;;;5060111;28;20079;-66
2022/01/17 08:30:08;;;;;;;26.63;4.88;;;6.40;99.90;;;;;;5058232;28;20172;-66
2022/01/17 08:32:34;;;;;;;25.30;4.40;;;6.50;99.90;;;;;;5062021;28;20569;-66
2022/01/17 08:35:00;;;;;;;20.77;4.03;;;6.50;99.90;;;;;;5056729;28;20052;-66
2022/01/17 08:37:27;;;;;;;29.85;4.70;;;6.50;99.90;;;;;;5051632;28;20068;-66
2022/01/17 08:39:53;;;;;;;31.90;5.03;;;6.50;99.90;;;;;;5059885;28;20111;-66
2022/01/17 08:42:20;;;;;;;30.25;4.85;;;6.50;99.90;;;;;;5063013;28;20256;-66
2022/01/17 08:44:49;;;;;;;25.27;4.05;;;6.50;99.90;;;;;;5061425;28;20032;-66
2022/01/17 08:47:16;;;;;;;28.65;4.95;;;6.50;99.90;;;;;;5056909;28;20373;-66
2022/01/17 08:49:43;;;;;;;26.55;4.05;;;6.60;99.90;;;;;;5066876;28;20044;-66
2022/01/17 08:52:09;;;;;;;24.67;4.32;;;6.60;99.90;;;;;;5063586;28;20496;-66
2022/01/17 08:54:36;;;;;;;25.70;4.50;;;6.60;99.90;;;;;;5057427;28;20398;-66
2022/01/17 08:57:02;;;;;;;26.73;4.10;;;6.60;99.90;;;;;;5055938;28;21951;-66
2022/01/17 08:59:30;;;;;;;26.33;4.63;;;6.70;99.90;;;;;;5062572;28;20044;-66
2022/01/17 09:01:56;;;;;;;26.33;3.83;;;6.70;99.90;;;;;;5056771;28;20078;-66
2022/01/17 09:04:21;;;;;;;25.85;3.90;;;6.70;99.90;;;;;;5057672;28;20033;-66
2022/01/17 09:06:47;;;;;;;29.10;4.50;;;6.80;99.90;;;;;;5060982;28;20048;-66
2022/01/17 09:09:13;;;;;;;26.08;4.15;;;6.80;99.90;;;;;;5060989;28;20040;-66
2022/01/17 09:11:38;;;;;;;33.63;4.65;;;6.90;99.90;;;;;;5059989;28;20128;-66
2022/01/17 09:14:04;;;;;;;26.15;4.18;;;6.90;99.90;;;;;;5056442;28;20136;-66
2022/01/17 09:16:30;;;;;;;27.83;3.95;;;6.90;99.90;;;;;;5059216;28;20041;-66
2022/01/17 09:18:56;;;;;;;25.15;3.97;;;7.00;99.90;;;;;;5058266;28;20053;-66
2022/01/17 09:21:22;;;;;;;34.45;4.32;;;7.00;99.90;;;;;;5063907;28;20040;-66
2022/01/17 09:23:49;;;;;;;33.80;4.80;;;7.00;99.90;;;;;;5058351;28;20139;-66
2022/01/17 09:26:15;;;;;;;32.80;4.60;;;7.10;99.90;;;;;;5065245;28;20507;-66
2022/01/17 09:28:42;;;;;;;31.15;4.60;;;7.10;99.90;;;;;;5057089;28;20068;-66
2022/01/17 09:31:08;;;;;;;42.58;5.53;;;7.20;99.90;;;;;;5059965;28;20493;-66
2022/01/17 09:33:34;;;;;;;31.20;5.05;;;7.30;99.90;;;;;;5061452;28;20051;-66
2022/01/17 09:36:00;;;;;;;27.20;4.55;;;7.20;99.90;;;;;;5057608;28;20045;-66
2022/01/17 09:38:25;;;;;;;27.85;5.18;;;7.30;99.90;;;;;;5056534;28;20401;-66
2022/01/17 09:40:51;;;;;;;33.10;4.88;;;7.30;99.90;;;;;;5058430;28;20044;-66
2022/01/17 09:43:17;;;;;;;33.83;4.78;;;7.30;99.90;;;;;;5062974;28;20120;-66
2022/01/17 09:45:43;;;;;;;28.73;4.85;;;7.40;99.90;;;;;;5057179;28;20116;-66
2022/01/17 09:48:09;;;;;;;25.75;3.63;;;7.50;99.90;;;;;;5053657;28;20083;-66
2022/01/17 09:50:46;;;;;;;29.63;4.05;;;7.50;99.90;;;;;;5053271;28;20469;-66
2022/01/17 09:53:17;;;;;;;26.00;4.13;;;7.60;99.90;;;;;;5055066;28;20041;-66
2022/01/17 09:55:44;;;;;;;28.13;4.32;;;7.70;99.90;;;;;;5060365;28;20045;-66
2022/01/17 09:58:10;;;;;;;33.83;5.47;;;7.70;99.90;;;;;;5060642;28;20087;-66
2022/01/17 10:00:42;;;;;;;31.17;4.25;;;7.80;99.90;;;;;;5053503;28;20037;-66
2022/01/17 10:03:13;;;;;;;29.55;4.68;;;7.90;99.90;;;;;;5055357;28;20118;-66
2022/01/17 10:05:40;;;;;;;30.98;4.72;;;7.90;99.90;;;;;;5058869;28;20367;-66
2022/01/17 10:08:16;;;;;;;27.38;4.22;;;7.90;99.90;;;;;;5060760;28;20047;-66
2022/01/17 10:11:04;;;;;;;29.38;5.30;;;8.10;99.90;;;;;;5057548;28;20040;-66
2022/01/17 10:13:38;;;;;;;29.42;6.03;;;8.10;99.90;;;;;;5063635;28;20056;-66
2022/01/17 10:16:21;;;;;;;34.33;5.72;;;8.20;99.90;;;;;;5058699;28;20040;-66
2022/01/17 10:19:02;;;;;;;25.02;3.85;;;8.30;99.90;;;;;;5055115;28;20045;-66
2022/01/17 10:21:36;;;;;;;24.40;4.05;;;8.50;99.90;;;;;;5051391;28;20466;-66
2022/01/17 10:34:57;;;;;;;29.80;5.32;;;8.70;99.90;;;;;;5052189;28;20048;-66
2022/01/17 10:37:25;;;;;;;41.30;5.95;;;8.80;99.90;;;;;;5041268;28;20217;-66
2022/01/17 10:39:57;;;;;;;33.78;6.03;;;8.90;99.90;;;;;;5053237;28;20051;-66
2022/01/17 10:42:28;;;;;;;37.47;5.90;;;8.90;99.90;;;;;;5055267;28;20162;-66
2022/01/17 10:45:00;;;;;;;32.22;5.85;;;9.00;99.90;;;;;;5056283;28;20102;-66
2022/01/17 10:47:27;;;;;;;40.33;6.97;;;9.00;99.90;;;;;;5053701;28;20092;-66
2022/01/17 10:49:56;;;;;;;32.58;7.10;;;9.10;99.90;;;;;;5062241;28;20040;-66
2022/01/17 10:52:34;;;;;;;30.90;4.80;;;9.10;99.90;;;;;;5056370;28;20044;-66
2022/01/17 10:55:12;;;;;;;31.50;5.63;;;9.20;99.90;;;;;;5058619;28;20535;-65
2022/01/17 10:57:41;;;;;;;35.45;5.60;;;9.30;99.90;;;;;;5054531;28;20507;-66
2022/01/17 11:00:27;;;;;;;42.08;7.90;;;9.30;99.90;;;;;;5057544;28;20191;-66
2022/01/17 11:02:56;;;;;;;35.53;6.25;;;9.30;99.90;;;;;;5057112;28;20071;-66
2022/01/17 11:05:22;;;;;;;31.85;5.63;;;9.30;99.90;;;;;;5059611;28;20047;-66
2022/01/17 11:07:52;;;;;;;35.30;6.35;;;9.30;99.90;;;;;;5060611;28;20497;-66
2022/01/17 11:10:29;;;;;;;35.78;5.20;;;9.30;99.90;;;;;;5056277;28;20484;-66
2022/01/17 11:12:58;;;;;;;36.13;6.78;;;9.30;99.90;;;;;;5059694;28;20061;-66
2022/01/17 11:15:25;;;;;;;33.83;5.25;;;9.30;99.90;;;;;;5054477;28;20047;-66
2022/01/17 11:17:55;;;;;;;30.17;6.00;;;9.30;99.90;;;;;;5065388;28;20402;-66
2022/01/17 11:20:23;;;;;;;37.17;6.20;;;9.30;99.90;;;;;;5061081;28;20090;-66
2022/01/17 11:22:51;;;;;;;32.17;5.57;;;9.30;99.90;;;;;;5057906;28;20049;-66
2022/01/17 11:25:20;;;;;;;30.70;6.53;;;9.30;99.90;;;;;;5060871;28;20477;-66
2022/01/17 11:27:47;;;;;;;35.08;6.53;;;9.30;99.90;;;;;;5062808;28;20586;-66
2022/01/17 11:30:13;;;;;;;35.75;6.82;;;9.30;99.90;;;;;;5060430;28;20036;-66
2022/01/17 11:32:39;;;;;;;38.00;6.43;;;9.30;99.90;;;;;;5048510;28;20082;-66
2022/01/17 11:35:07;;;;;;;37.65;6.68;;;9.30;99.90;;;;;;5066107;28;20388;-66
2022/01/17 11:37:38;;;;;;;40.40;6.35;;;9.40;99.90;;;;;;5059607;28;20077;-66
2022/01/17 11:40:08;;;;;;;31.92;6.40;;;9.40;99.90;;;;;;5062193;28;20561;-66
2022/01/17 11:42:45;;;;;;;37.70;6.43;;;9.50;99.90;;;;;;5063155;28;20127;-66
2022/01/17 11:45:23;;;;;;;35.72;6.53;;;9.60;99.90;;;;;;5061049;28;20056;-66
2022/01/17 11:47:50;;;;;;;37.35;6.63;;;9.70;99.90;;;;;;5064418;28;20562;-66
2022/01/17 11:50:31;;;;;;;35.78;7.45;;;9.80;99.90;;;;;;5064861;28;20036;-66
2022/01/17 11:53:03;;;;;;;38.90;6.35;;;9.80;99.90;;;;;;5060120;28;20060;-67
2022/01/17 11:55:43;;;;;;;42.72;6.72;;;9.80;99.90;;;;;;5060868;28;20045;-66
2022/01/17 11:58:29;;;;;;;36.83;5.97;;;9.70;99.90;;;;;;5065663;28;20033;-66
2022/01/17 12:00:57;;;;;;;35.65;6.53;;;9.70;99.90;;;;;;5060791;28;20040;-66
2022/01/17 12:03:26;;;;;;;35.00;6.07;;;9.70;99.90;;;;;;5062347;28;20045;-66
2022/01/17 12:05:59;;;;;;;33.25;5.75;;;9.60;99.90;;;;;;5057947;28;20616;-66
2022/01/17 12:08:26;;;;;;;36.75;6.47;;;9.70;99.90;;;;;;5051913;28;20041;-66
2022/01/17 12:11:03;;;;;;;39.40;6.53;;;9.80;99.90;;;;;;5060395;28;20055;-66
2022/01/17 12:13:49;;;;;;;32.63;5.72;;;9.80;99.90;;;;;;5059721;28;20044;-66
2022/01/17 12:16:21;;;;;;;32.97;6.30;;;9.90;99.90;;;;;;5057305;28;20061;-66
2022/01/17 12:18:54;;;;;;;38.50;6.20;;;9.90;99.90;;;;;;5062096;28;20037;-66
2022/01/17 12:21:40;;;;;;;35.88;6.85;;;10.00;99.90;;;;;;5067222;28;20090;-66
2022/01/17 12:24:31;;;;;;;35.03;6.22;;;10.00;99.90;;;;;;5055162;28;20401;-66
2022/01/17 12:27:01;;;;;;;32.47;5.93;;;9.90;99.90;;;;;;5059793;28;20039;-66
2022/01/17 12:29:37;;;;;;;35.78;6.72;;;9.80;99.90;;;;;;5062259;28;20068;-67
2022/01/17 12:32:05;;;;;;;31.25;6.72;;;9.80;99.90;;;;;;5060846;28;20061;-66
2022/01/17 12:34:42;;;;;;;36.13;6.35;;;9.80;99.90;;;;;;5059105;28;20044;-67
2022/01/17 12:37:44;;;;;;;38.90;7.07;;;9.80;99.90;;;;;;5061123;28;20037;-67
2022/01/17 12:40:13;;;;;;;34.28;5.63;;;9.70;99.90;;;;;;5066754;28;20393;-67
2022/01/17 12:43:15;;;;;;;36.88;7.40;;;9.70;99.90;;;;;;5056308;28;20191;-67
2022/01/17 12:46:02;;;;;;;36.55;6.47;;;9.70;99.90;;;;;;5065084;28;20382;-67
2022/01/17 12:48:30;;;;;;;35.63;6.53;;;9.80;99.90;;;;;;5058204;28;20063;-67
2022/01/17 12:50:57;;;;;;;37.83;6.45;;;9.90;99.90;;;;;;5064316;28;20041;-67
2022/01/17 12:53:25;;;;;;;35.33;7.00;;;10.00;99.90;;;;;;5064959;28;20472;-67
2022/01/17 12:55:55;;;;;;;35.90;7.13;;;10.00;99.90;;;;;;5060174;28;20041;-67
2022/01/17 12:58:24;;;;;;;48.85;8.23;;;10.00;99.90;;;;;;5065217;28;20350;-67
2022/01/17 13:00:56;;;;;;;41.88;6.82;;;9.90;99.90;;;;;;5054991;28;20056;-67
2022/01/17 13:03:25;;;;;;;33.25;6.95;;;9.80;99.90;;;;;;5056889;28;20048;-67
2022/01/17 13:05:53;;;;;;;40.40;6.78;;;9.90;99.90;;;;;;5056682;28;20450;-67
2022/01/17 13:08:20;;;;;;;35.83;6.47;;;9.80;99.90;;;;;;5056960;28;20515;-67
2022/01/17 13:10:46;;;;;;;33.38;6.93;;;9.80;99.90;;;;;;5057214;28;20509;-67
2022/01/17 13:13:16;;;;;;;31.85;6.00;;;9.80;99.90;;;;;;5055656;28;20059;-67
2022/01/17 13:16:11;;;;;;;39.90;6.88;;;9.80;99.90;;;;;;5064849;28;20056;-67
2022/01/17 13:18:37;;;;;;;36.85;6.85;;;9.70;99.90;;;;;;5045585;28;20052;-67
2022/01/17 13:21:04;;;;;;;35.05;6.00;;;9.70;99.90;;;;;;5060764;28;20557;-67